sensor_id;sensor_type;location;lat;lon;timestamp;P1;durP1;ratioP1;P2;durP2;ratioP2
19111;SDS011;9688;51.906;8.376;2023-03-12T00:00:39;12.90;;;6.60;;
19111;SDS011;9688;51.906;8.376;2023-03-12T00:03:26;11.93;;;6.40;;
19111;SDS011;9688;51.906;8.376;2023-03-12T00:06:17;9.90;;;6.40;;
19111;SDS011;9688;51.906;8.376;2023-03-12T00:09:03;11.90;;;6.67;;
19111;SDS011;9688;51.906;8.376;2023-03-12T00:11:49;11.80;;;6.93;;
19111;SDS011;9688;51.906;8.376;2023-03-12T00:14:37;14.03;;;6.33;;
19111;SDS011;9688;51.906;8.376;2023-03-12T00:17:23;8.57;;;6.70;;
19111;SDS011;9688;51.906;8.376;2023-03-12T00:20:09;14.73;;;6.77;;
19111;SDS011;9688;51.906;8.376;2023-03-12T00:23:02;10.53;;;6.30;;
19111;SDS011;9688;51.906;8.376;2023-03-12T00:25:49;17.40;;;7.43;;
19111;SDS011;9688;51.906;8.376;2023-03-12T00:28:35;11.97;;;6.23;;
19111;SDS011;9688;51.906;8.376;2023-03-12T00:31:22;11.47;;;6.03;;
19111;SDS011;9688;51.906;8.376;2023-03-12T00:34:10;10.37;;;5.60;;
19111;SDS011;9688;51.906;8.376;2023-03-12T00:36:55;9.67;;;5.90;;
19111;SDS011;9688;51.906;8.376;2023-03-12T00:39:42;8.53;;;5.80;;
19111;SDS011;9688;51.906;8.376;2023-03-12T00:42:29;9.73;;;5.90;;
19111;SDS011;9688;51.906;8.376;2023-03-12T00:45:15;10.33;;;6.20;;
19111;SDS011;9688;51.906;8.376;2023-03-12T00:48:01;10.43;;;6.50;;
19111;SDS011;9688;51.906;8.376;2023-03-12T00:50:46;11.47;;;6.50;;
19111;SDS011;9688;51.906;8.376;2023-03-12T00:53:32;10.47;;;6.13;;
19111;SDS011;9688;51.906;8.376;2023-03-12T00:56:19;10.47;;;6.27;;
19111;SDS011;9688;51.906;8.376;2023-03-12T00:59:04;9.40;;;6.40;;
19111;SDS011;9688;51.906;8.376;2023-03-12T01:01:49;11.13;;;6.43;;
19111;SDS011;9688;51.906;8.376;2023-03-12T01:04:35;7.83;;;5.70;;
19111;SDS011;9688;51.906;8.376;2023-03-12T01:07:21;9.27;;;6.33;;
19111;SDS011;9688;51.906;8.376;2023-03-12T01:10:07;14.30;;;6.43;;
19111;SDS011;9688;51.906;8.376;2023-03-12T01:12:55;10.60;;;6.63;;
19111;SDS011;9688;51.906;8.376;2023-03-12T01:15:41;12.93;;;7.00;;
19111;SDS011;9688;51.906;8.376;2023-03-12T01:18:27;10.97;;;6.03;;
19111;SDS011;9688;51.906;8.376;2023-03-12T01:21:15;10.47;;;6.00;;
19111;SDS011;9688;51.906;8.376;2023-03-12T01:24:01;10.13;;;6.00;;
19111;SDS011;9688;51.906;8.376;2023-03-12T01:26:46;16.10;;;6.70;;
19111;SDS011;9688;51.906;8.376;2023-03-12T01:29:33;9.70;;;5.80;;
19111;SDS011;9688;51.906;8.376;2023-03-12T01:32:19;7.90;;;5.50;;
19111;SDS011;9688;51.906;8.376;2023-03-12T01:35:05;10.47;;;6.37;;
19111;SDS011;9688;51.906;8.376;2023-03-12T01:37:51;10.27;;;5.90;;
19111;SDS011;9688;51.906;8.376;2023-03-12T01:40:39;10.83;;;5.47;;
19111;SDS011;9688;51.906;8.376;2023-03-12T01:43:27;11.83;;;6.17;;
19111;SDS011;9688;51.906;8.376;2023-03-12T01:46:20;7.47;;;5.67;;
19111;SDS011;9688;51.906;8.376;2023-03-12T01:49:09;8.40;;;5.23;;
19111;SDS011;9688;51.906;8.376;2023-03-12T01:51:57;8.40;;;6.03;;
19111;SDS011;9688;51.906;8.376;2023-03-12T01:54:47;16.30;;;5.83;;
19111;SDS011;9688;51.906;8.376;2023-03-12T01:57:38;14.10;;;6.43;;
19111;SDS011;9688;51.906;8.376;2023-03-12T02:00:27;11.47;;;6.43;;
19111;SDS011;9688;51.906;8.376;2023-03-12T02:03:14;11.33;;;6.70;;
19111;SDS011;9688;51.906;8.376;2023-03-12T02:06:01;11.83;;;6.03;;
19111;SDS011;9688;51.906;8.376;2023-03-12T02:08:50;10.60;;;6.57;;
19111;SDS011;9688;51.906;8.376;2023-03-12T02:11:37;17.67;;;6.53;;
19111;SDS011;9688;51.906;8.376;2023-03-12T02:14:23;10.63;;;5.83;;
19111;SDS011;9688;51.906;8.376;2023-03-12T02:17:09;10.53;;;6.23;;
19111;SDS011;9688;51.906;8.376;2023-03-12T02:19:59;8.97;;;6.43;;
19111;SDS011;9688;51.906;8.376;2023-03-12T02:22:56;9.30;;;6.57;;
19111;SDS011;9688;51.906;8.376;2023-03-12T02:25:50;12.03;;;5.90;;
19111;SDS011;9688;51.906;8.376;2023-03-12T02:28:40;11.13;;;5.73;;
19111;SDS011;9688;51.906;8.376;2023-03-12T02:31:30;9.07;;;5.73;;
19111;SDS011;9688;51.906;8.376;2023-03-12T02:34:19;9.33;;;5.90;;
19111;SDS011;9688;51.906;8.376;2023-03-12T02:37:04;10.20;;;5.70;;
19111;SDS011;9688;51.906;8.376;2023-03-12T02:39:50;6.57;;;5.10;;
19111;SDS011;9688;51.906;8.376;2023-03-12T02:42:43;6.57;;;5.73;;
19111;SDS011;9688;51.906;8.376;2023-03-12T02:45:28;7.43;;;5.93;;
19111;SDS011;9688;51.906;8.376;2023-03-12T02:48:14;11.73;;;5.90;;
19111;SDS011;9688;51.906;8.376;2023-03-12T02:51:00;9.17;;;5.77;;
19111;SDS011;9688;51.906;8.376;2023-03-12T02:53:46;9.80;;;5.50;;
19111;SDS011;9688;51.906;8.376;2023-03-12T02:56:37;14.70;;;5.67;;
19111;SDS011;9688;51.906;8.376;2023-03-12T02:59:24;5.50;;;5.00;;
19111;SDS011;9688;51.906;8.376;2023-03-12T03:02:10;9.17;;;5.07;;
19111;SDS011;9688;51.906;8.376;2023-03-12T03:04:56;7.67;;;5.13;;
19111;SDS011;9688;51.906;8.376;2023-03-12T03:07:42;6.90;;;5.03;;
19111;SDS011;9688;51.906;8.376;2023-03-12T03:10:28;8.60;;;5.20;;
19111;SDS011;9688;51.906;8.376;2023-03-12T03:13:14;12.50;;;5.67;;
19111;SDS011;9688;51.906;8.376;2023-03-12T03:16:00;8.07;;;4.90;;
19111;SDS011;9688;51.906;8.376;2023-03-12T03:18:46;7.60;;;4.77;;
19111;SDS011;9688;51.906;8.376;2023-03-12T03:21:32;7.83;;;5.13;;
19111;SDS011;9688;51.906;8.376;2023-03-12T03:24:18;7.57;;;5.10;;
19111;SDS011;9688;51.906;8.376;2023-03-12T03:27:04;5.63;;;4.50;;
19111;SDS011;9688;51.906;8.376;2023-03-12T03:29:49;8.33;;;5.23;;
19111;SDS011;9688;51.906;8.376;2023-03-12T03:32:36;10.07;;;5.20;;
19111;SDS011;9688;51.906;8.376;2023-03-12T03:35:23;10.20;;;5.63;;
19111;SDS011;9688;51.906;8.376;2023-03-12T03:38:08;10.57;;;6.20;;
19111;SDS011;9688;51.906;8.376;2023-03-12T03:40:53;7.07;;;5.20;;
19111;SDS011;9688;51.906;8.376;2023-03-12T03:43:39;10.37;;;5.23;;
19111;SDS011;9688;51.906;8.376;2023-03-12T03:46:24;8.37;;;5.00;;
19111;SDS011;9688;51.906;8.376;2023-03-12T03:49:12;10.80;;;5.73;;
19111;SDS011;9688;51.906;8.376;2023-03-12T03:51:57;6.87;;;5.43;;
19111;SDS011;9688;51.906;8.376;2023-03-12T03:54:42;7.17;;;4.77;;
19111;SDS011;9688;51.906;8.376;2023-03-12T03:57:28;5.63;;;4.70;;
19111;SDS011;9688;51.906;8.376;2023-03-12T04:00:14;8.37;;;5.13;;
19111;SDS011;9688;51.906;8.376;2023-03-12T04:03:01;6.20;;;4.90;;
19111;SDS011;9688;51.906;8.376;2023-03-12T04:05:53;11.57;;;4.60;;
19111;SDS011;9688;51.906;8.376;2023-03-12T04:08:39;8.63;;;4.93;;
19111;SDS011;9688;51.906;8.376;2023-03-12T04:11:25;6.63;;;4.57;;
19111;SDS011;9688;51.906;8.376;2023-03-12T04:14:10;6.97;;;4.87;;
19111;SDS011;9688;51.906;8.376;2023-03-12T04:16:56;10.77;;;4.73;;
19111;SDS011;9688;51.906;8.376;2023-03-12T04:19:41;7.33;;;3.87;;
19111;SDS011;9688;51.906;8.376;2023-03-12T04:22:32;9.23;;;4.63;;
19111;SDS011;9688;51.906;8.376;2023-03-12T04:25:17;10.00;;;4.30;;
19111;SDS011;9688;51.906;8.376;2023-03-12T04:28:06;5.80;;;4.43;;
19111;SDS011;9688;51.906;8.376;2023-03-12T04:30:54;10.80;;;4.77;;
19111;SDS011;9688;51.906;8.376;2023-03-12T04:33:42;9.13;;;4.23;;
19111;SDS011;9688;51.906;8.376;2023-03-12T04:36:28;6.30;;;3.93;;
19111;SDS011;9688;51.906;8.376;2023-03-12T04:39:16;7.03;;;4.57;;
19111;SDS011;9688;51.906;8.376;2023-03-12T04:42:03;5.47;;;3.73;;
19111;SDS011;9688;51.906;8.376;2023-03-12T04:44:49;6.70;;;4.27;;
19111;SDS011;9688;51.906;8.376;2023-03-12T04:47:36;9.07;;;4.27;;
19111;SDS011;9688;51.906;8.376;2023-03-12T04:50:21;4.10;;;3.60;;
19111;SDS011;9688;51.906;8.376;2023-03-12T04:53:07;6.17;;;4.03;;
19111;SDS011;9688;51.906;8.376;2023-03-12T04:55:54;6.10;;;3.83;;
19111;SDS011;9688;51.906;8.376;2023-03-12T04:58:40;5.27;;;3.73;;
19111;SDS011;9688;51.906;8.376;2023-03-12T05:01:28;6.53;;;4.07;;
19111;SDS011;9688;51.906;8.376;2023-03-12T05:04:15;4.33;;;3.60;;
19111;SDS011;9688;51.906;8.376;2023-03-12T05:07:01;5.73;;;3.57;;
19111;SDS011;9688;51.906;8.376;2023-03-12T05:09:47;4.00;;;3.60;;
19111;SDS011;9688;51.906;8.376;2023-03-12T05:12:33;5.43;;;3.50;;
19111;SDS011;9688;51.906;8.376;2023-03-12T05:15:19;4.80;;;3.63;;
19111;SDS011;9688;51.906;8.376;2023-03-12T05:18:06;5.83;;;3.50;;
19111;SDS011;9688;51.906;8.376;2023-03-12T05:20:56;5.70;;;3.90;;
19111;SDS011;9688;51.906;8.376;2023-03-12T05:23:43;6.07;;;3.70;;
19111;SDS011;9688;51.906;8.376;2023-03-12T05:26:30;3.93;;;3.60;;
19111;SDS011;9688;51.906;8.376;2023-03-12T05:29:19;5.80;;;3.60;;
19111;SDS011;9688;51.906;8.376;2023-03-12T05:32:05;7.07;;;3.73;;
19111;SDS011;9688;51.906;8.376;2023-03-12T05:34:51;6.20;;;3.47;;
19111;SDS011;9688;51.906;8.376;2023-03-12T05:37:37;7.47;;;3.90;;
19111;SDS011;9688;51.906;8.376;2023-03-12T05:40:25;4.77;;;3.23;;
19111;SDS011;9688;51.906;8.376;2023-03-12T05:43:10;3.90;;;3.40;;
19111;SDS011;9688;51.906;8.376;2023-03-12T05:45:58;4.63;;;3.70;;
19111;SDS011;9688;51.906;8.376;2023-03-12T05:48:45;6.87;;;3.70;;
19111;SDS011;9688;51.906;8.376;2023-03-12T05:51:31;7.23;;;3.43;;
19111;SDS011;9688;51.906;8.376;2023-03-12T05:54:16;5.20;;;3.80;;
19111;SDS011;9688;51.906;8.376;2023-03-12T05:57:02;4.77;;;3.43;;
19111;SDS011;9688;51.906;8.376;2023-03-12T05:59:48;5.77;;;3.20;;
19111;SDS011;9688;51.906;8.376;2023-03-12T06:02:37;4.93;;;3.37;;
19111;SDS011;9688;51.906;8.376;2023-03-12T06:05:23;9.47;;;3.33;;
19111;SDS011;9688;51.906;8.376;2023-03-12T06:08:08;7.43;;;3.63;;
19111;SDS011;9688;51.906;8.376;2023-03-12T06:10:54;6.57;;;3.50;;
19111;SDS011;9688;51.906;8.376;2023-03-12T06:13:40;7.60;;;3.30;;
19111;SDS011;9688;51.906;8.376;2023-03-12T06:16:26;8.03;;;2.93;;
19111;SDS011;9688;51.906;8.376;2023-03-12T06:19:13;8.10;;;3.40;;
19111;SDS011;9688;51.906;8.376;2023-03-12T06:21:59;7.83;;;3.23;;
19111;SDS011;9688;51.906;8.376;2023-03-12T06:24:44;3.83;;;3.17;;
19111;SDS011;9688;51.906;8.376;2023-03-12T06:27:31;5.80;;;3.17;;
19111;SDS011;9688;51.906;8.376;2023-03-12T06:30:17;8.97;;;3.53;;
19111;SDS011;9688;51.906;8.376;2023-03-12T06:33:03;6.90;;;3.50;;
19111;SDS011;9688;51.906;8.376;2023-03-12T06:35:53;5.90;;;3.00;;
19111;SDS011;9688;51.906;8.376;2023-03-12T06:38:39;5.17;;;3.23;;
19111;SDS011;9688;51.906;8.376;2023-03-12T06:41:25;4.17;;;2.97;;
19111;SDS011;9688;51.906;8.376;2023-03-12T06:44:10;5.40;;;3.43;;
19111;SDS011;9688;51.906;8.376;2023-03-12T06:46:56;5.37;;;3.50;;
19111;SDS011;9688;51.906;8.376;2023-03-12T06:49:42;6.60;;;3.00;;
19111;SDS011;9688;51.906;8.376;2023-03-12T06:52:31;8.47;;;3.27;;
19111;SDS011;9688;51.906;8.376;2023-03-12T06:55:17;4.37;;;3.00;;
19111;SDS011;9688;51.906;8.376;2023-03-12T06:58:03;7.53;;;3.03;;
19111;SDS011;9688;51.906;8.376;2023-03-12T07:00:48;7.60;;;2.77;;
19111;SDS011;9688;51.906;8.376;2023-03-12T07:03:34;4.73;;;2.67;;
19111;SDS011;9688;51.906;8.376;2023-03-12T07:06:20;4.03;;;2.80;;
19111;SDS011;9688;51.906;8.376;2023-03-12T07:09:09;4.40;;;2.50;;
19111;SDS011;9688;51.906;8.376;2023-03-12T07:11:54;4.43;;;2.40;;
19111;SDS011;9688;51.906;8.376;2023-03-12T07:14:40;6.93;;;2.40;;
19111;SDS011;9688;51.906;8.376;2023-03-12T07:17:26;4.90;;;2.57;;
19111;SDS011;9688;51.906;8.376;2023-03-12T07:20:13;2.43;;;2.23;;
19111;SDS011;9688;51.906;8.376;2023-03-12T07:22:58;4.47;;;2.47;;
19111;SDS011;9688;51.906;8.376;2023-03-12T07:25:46;4.83;;;2.20;;
19111;SDS011;9688;51.906;8.376;2023-03-12T07:28:31;4.20;;;2.87;;
19111;SDS011;9688;51.906;8.376;2023-03-12T07:31:17;3.47;;;2.23;;
19111;SDS011;9688;51.906;8.376;2023-03-12T07:34:03;5.30;;;2.70;;
19111;SDS011;9688;51.906;8.376;2023-03-12T07:36:49;3.90;;;2.60;;
19111;SDS011;9688;51.906;8.376;2023-03-12T07:39:35;5.63;;;2.53;;
19111;SDS011;9688;51.906;8.376;2023-03-12T07:42:22;2.90;;;2.30;;
19111;SDS011;9688;51.906;8.376;2023-03-12T07:45:08;2.83;;;2.50;;
19111;SDS011;9688;51.906;8.376;2023-03-12T07:47:54;5.47;;;2.00;;
19111;SDS011;9688;51.906;8.376;2023-03-12T07:50:40;3.43;;;2.50;;
19111;SDS011;9688;51.906;8.376;2023-03-12T07:53:25;4.23;;;2.53;;
19111;SDS011;9688;51.906;8.376;2023-03-12T07:56:11;4.97;;;2.10;;
19111;SDS011;9688;51.906;8.376;2023-03-12T07:58:58;5.27;;;2.33;;
19111;SDS011;9688;51.906;8.376;2023-03-12T08:01:43;3.77;;;2.00;;
19111;SDS011;9688;51.906;8.376;2023-03-12T08:04:28;2.93;;;2.57;;
19111;SDS011;9688;51.906;8.376;2023-03-12T08:07:14;6.47;;;2.27;;
19111;SDS011;9688;51.906;8.376;2023-03-12T08:10:00;7.20;;;2.53;;
19111;SDS011;9688;51.906;8.376;2023-03-12T08:12:50;4.77;;;2.27;;
19111;SDS011;9688;51.906;8.376;2023-03-12T08:15:37;7.00;;;2.43;;
19111;SDS011;9688;51.906;8.376;2023-03-12T08:18:23;3.50;;;2.00;;
19111;SDS011;9688;51.906;8.376;2023-03-12T08:21:09;4.00;;;2.07;;
19111;SDS011;9688;51.906;8.376;2023-03-12T08:23:54;8.33;;;2.23;;
19111;SDS011;9688;51.906;8.376;2023-03-12T08:26:40;5.87;;;2.37;;
19111;SDS011;9688;51.906;8.376;2023-03-12T08:29:27;4.47;;;1.73;;
19111;SDS011;9688;51.906;8.376;2023-03-12T08:32:15;6.93;;;2.07;;
19111;SDS011;9688;51.906;8.376;2023-03-12T08:35:00;6.20;;;2.53;;
19111;SDS011;9688;51.906;8.376;2023-03-12T08:37:48;3.40;;;2.47;;
19111;SDS011;9688;51.906;8.376;2023-03-12T08:40:35;6.63;;;3.03;;
19111;SDS011;9688;51.906;8.376;2023-03-12T08:43:20;3.77;;;2.10;;
19111;SDS011;9688;51.906;8.376;2023-03-12T08:46:06;3.77;;;2.07;;
19111;SDS011;9688;51.906;8.376;2023-03-12T08:48:53;5.90;;;2.00;;
19111;SDS011;9688;51.906;8.376;2023-03-12T08:51:38;5.20;;;2.20;;
19111;SDS011;9688;51.906;8.376;2023-03-12T08:54:25;5.37;;;2.40;;
19111;SDS011;9688;51.906;8.376;2023-03-12T08:57:10;5.53;;;2.40;;
19111;SDS011;9688;51.906;8.376;2023-03-12T08:59:56;3.57;;;2.30;;
19111;SDS011;9688;51.906;8.376;2023-03-12T09:02:43;2.30;;;2.20;;
19111;SDS011;9688;51.906;8.376;2023-03-12T09:05:31;4.13;;;2.13;;
19111;SDS011;9688;51.906;8.376;2023-03-12T09:08:16;2.93;;;2.30;;
19111;SDS011;9688;51.906;8.376;2023-03-12T09:11:03;5.73;;;2.60;;
19111;SDS011;9688;51.906;8.376;2023-03-12T09:13:48;2.50;;;2.30;;
19111;SDS011;9688;51.906;8.376;2023-03-12T09:16:34;4.10;;;1.97;;
19111;SDS011;9688;51.906;8.376;2023-03-12T09:19:20;5.60;;;2.40;;
19111;SDS011;9688;51.906;8.376;2023-03-12T09:22:07;7.40;;;2.30;;
19111;SDS011;9688;51.906;8.376;2023-03-12T09:24:53;4.30;;;2.43;;
19111;SDS011;9688;51.906;8.376;2023-03-12T09:27:40;6.20;;;2.40;;
19111;SDS011;9688;51.906;8.376;2023-03-12T09:30:27;5.33;;;2.30;;
19111;SDS011;9688;51.906;8.376;2023-03-12T09:33:13;3.27;;;2.10;;
19111;SDS011;9688;51.906;8.376;2023-03-12T09:36:01;7.00;;;2.37;;
19111;SDS011;9688;51.906;8.376;2023-03-12T09:38:51;5.60;;;2.13;;
19111;SDS011;9688;51.906;8.376;2023-03-12T09:41:37;3.03;;;2.00;;
19111;SDS011;9688;51.906;8.376;2023-03-12T09:44:26;7.23;;;3.03;;
19111;SDS011;9688;51.906;8.376;2023-03-12T09:47:19;5.63;;;2.97;;
19111;SDS011;9688;51.906;8.376;2023-03-12T09:50:15;9.10;;;2.93;;
19111;SDS011;9688;51.906;8.376;2023-03-12T09:53:05;5.53;;;2.77;;
19111;SDS011;9688;51.906;8.376;2023-03-12T09:56:01;7.90;;;3.20;;
19111;SDS011;9688;51.906;8.376;2023-03-12T09:58:52;3.90;;;3.40;;
19111;SDS011;9688;51.906;8.376;2023-03-12T10:01:40;4.60;;;2.87;;
19111;SDS011;9688;51.906;8.376;2023-03-12T10:04:37;5.33;;;3.20;;
19111;SDS011;9688;51.906;8.376;2023-03-12T10:07:28;4.70;;;4.03;;
19111;SDS011;9688;51.906;8.376;2023-03-12T10:10:27;8.73;;;2.93;;
19111;SDS011;9688;51.906;8.376;2023-03-12T10:16:39;8.43;;;3.37;;
19111;SDS011;9688;51.906;8.376;2023-03-12T10:19:40;9.10;;;3.30;;
19111;SDS011;9688;51.906;8.376;2023-03-12T10:22:43;5.80;;;3.43;;
19111;SDS011;9688;51.906;8.376;2023-03-12T10:25:37;10.17;;;4.03;;
19111;SDS011;9688;51.906;8.376;2023-03-12T10:28:28;9.57;;;3.90;;
19111;SDS011;9688;51.906;8.376;2023-03-12T10:31:20;8.23;;;4.43;;
19111;SDS011;9688;51.906;8.376;2023-03-12T10:34:13;7.30;;;4.03;;
19111;SDS011;9688;51.906;8.376;2023-03-12T10:37:02;8.73;;;3.90;;
19111;SDS011;9688;51.906;8.376;2023-03-12T10:39:54;13.23;;;3.30;;
19111;SDS011;9688;51.906;8.376;2023-03-12T10:42:40;11.13;;;3.80;;
19111;SDS011;9688;51.906;8.376;2023-03-12T10:45:27;7.27;;;3.50;;
19111;SDS011;9688;51.906;8.376;2023-03-12T10:48:23;8.60;;;4.23;;
19111;SDS011;9688;51.906;8.376;2023-03-12T10:51:10;5.57;;;4.23;;
19111;SDS011;9688;51.906;8.376;2023-03-12T10:53:56;8.97;;;3.60;;
19111;SDS011;9688;51.906;8.376;2023-03-12T10:56:46;7.00;;;4.07;;
19111;SDS011;9688;51.906;8.376;2023-03-12T10:59:34;7.30;;;4.17;;
19111;SDS011;9688;51.906;8.376;2023-03-12T11:02:28;9.50;;;4.10;;
19111;SDS011;9688;51.906;8.376;2023-03-12T11:05:21;5.47;;;4.67;;
19111;SDS011;9688;51.906;8.376;2023-03-12T11:08:17;6.93;;;4.27;;
19111;SDS011;9688;51.906;8.376;2023-03-12T11:11:06;7.83;;;4.17;;
19111;SDS011;9688;51.906;8.376;2023-03-12T11:14:03;8.47;;;4.43;;
19111;SDS011;9688;51.906;8.376;2023-03-12T11:16:51;6.63;;;4.13;;
19111;SDS011;9688;51.906;8.376;2023-03-12T11:19:38;6.03;;;4.07;;
19111;SDS011;9688;51.906;8.376;2023-03-12T11:22:30;9.40;;;4.40;;
19111;SDS011;9688;51.906;8.376;2023-03-12T11:25:19;6.63;;;4.90;;
19111;SDS011;9688;51.906;8.376;2023-03-12T11:28:09;10.50;;;5.00;;
19111;SDS011;9688;51.906;8.376;2023-03-12T11:31:02;8.83;;;4.50;;
19111;SDS011;9688;51.906;8.376;2023-03-12T11:34:02;7.77;;;4.37;;
19111;SDS011;9688;51.906;8.376;2023-03-12T11:36:54;8.17;;;5.10;;
19111;SDS011;9688;51.906;8.376;2023-03-12T11:39:55;8.10;;;4.83;;
19111;SDS011;9688;51.906;8.376;2023-03-12T11:42:57;8.43;;;5.27;;
19111;SDS011;9688;51.906;8.376;2023-03-12T11:46:02;6.17;;;5.13;;
19111;SDS011;9688;51.906;8.376;2023-03-12T11:49:00;9.20;;;5.07;;
19111;SDS011;9688;51.906;8.376;2023-03-12T11:51:59;7.00;;;5.40;;
19111;SDS011;9688;51.906;8.376;2023-03-12T11:54:56;8.03;;;5.40;;
19111;SDS011;9688;51.906;8.376;2023-03-12T11:58:01;11.20;;;6.03;;
19111;SDS011;9688;51.906;8.376;2023-03-12T12:01:06;10.63;;;5.93;;
19111;SDS011;9688;51.906;8.376;2023-03-12T12:04:00;10.57;;;6.17;;
19111;SDS011;9688;51.906;8.376;2023-03-12T12:07:07;10.97;;;6.30;;
19111;SDS011;9688;51.906;8.376;2023-03-12T12:10:08;12.13;;;6.77;;
19111;SDS011;9688;51.906;8.376;2023-03-12T12:13:05;10.17;;;6.63;;
19111;SDS011;9688;51.906;8.376;2023-03-12T12:15:56;10.20;;;7.00;;
19111;SDS011;9688;51.906;8.376;2023-03-12T12:18:54;9.73;;;6.73;;
19111;SDS011;9688;51.906;8.376;2023-03-12T12:21:55;10.23;;;7.40;;
19111;SDS011;9688;51.906;8.376;2023-03-12T12:24:58;9.43;;;7.10;;
19111;SDS011;9688;51.906;8.376;2023-03-12T12:28:08;12.93;;;7.30;;
19111;SDS011;9688;51.906;8.376;2023-03-12T12:31:14;13.40;;;7.80;;
19111;SDS011;9688;51.906;8.376;2023-03-12T12:34:14;12.30;;;7.20;;
19111;SDS011;9688;51.906;8.376;2023-03-12T12:40:32;12.07;;;7.13;;
19111;SDS011;9688;51.906;8.376;2023-03-12T12:43:24;10.63;;;7.33;;
19111;SDS011;9688;51.906;8.376;2023-03-12T12:46:13;12.70;;;8.37;;
19111;SDS011;9688;51.906;8.376;2023-03-12T12:49:03;12.33;;;7.70;;
19111;SDS011;9688;51.906;8.376;2023-03-12T12:51:54;16.30;;;8.30;;
19111;SDS011;9688;51.906;8.376;2023-03-12T12:54:48;12.57;;;8.97;;
19111;SDS011;9688;51.906;8.376;2023-03-12T12:57:47;11.60;;;9.00;;
19111;SDS011;9688;51.906;8.376;2023-03-12T13:00:41;13.83;;;9.00;;
19111;SDS011;9688;51.906;8.376;2023-03-12T13:03:30;13.27;;;8.50;;
19111;SDS011;9688;51.906;8.376;2023-03-12T13:06:16;12.53;;;8.47;;
19111;SDS011;9688;51.906;8.376;2023-03-12T13:09:12;12.80;;;7.80;;
19111;SDS011;9688;51.906;8.376;2023-03-12T13:12:04;12.23;;;9.23;;
19111;SDS011;9688;51.906;8.376;2023-03-12T13:14:53;12.53;;;9.40;;
19111;SDS011;9688;51.906;8.376;2023-03-12T13:20:59;24.50;;;13.37;;
19111;SDS011;9688;51.906;8.376;2023-03-12T13:24:05;16.23;;;11.30;;
19111;SDS011;9688;51.906;8.376;2023-03-12T13:26:59;18.40;;;11.43;;
19111;SDS011;9688;51.906;8.376;2023-03-12T13:29:54;20.63;;;12.40;;
19111;SDS011;9688;51.906;8.376;2023-03-12T13:36:03;20.97;;;12.57;;
19111;SDS011;9688;51.906;8.376;2023-03-12T13:38:56;20.03;;;12.73;;
19111;SDS011;9688;51.906;8.376;2023-03-12T13:41:45;24.63;;;14.13;;
19111;SDS011;9688;51.906;8.376;2023-03-12T13:44:36;23.20;;;13.07;;
19111;SDS011;9688;51.906;8.376;2023-03-12T13:47:27;22.13;;;13.37;;
19111;SDS011;9688;51.906;8.376;2023-03-12T13:50:14;25.27;;;13.50;;
19111;SDS011;9688;51.906;8.376;2023-03-12T13:53:02;23.57;;;12.93;;
19111;SDS011;9688;51.906;8.376;2023-03-12T13:55:58;25.10;;;13.33;;
19111;SDS011;9688;51.906;8.376;2023-03-12T13:58:47;24.40;;;13.73;;
19111;SDS011;9688;51.906;8.376;2023-03-12T14:01:40;25.33;;;13.60;;
19111;SDS011;9688;51.906;8.376;2023-03-12T14:04:34;25.67;;;13.43;;
19111;SDS011;9688;51.906;8.376;2023-03-12T14:07:32;21.50;;;11.57;;
19111;SDS011;9688;51.906;8.376;2023-03-12T14:10:33;20.60;;;12.30;;
19111;SDS011;9688;51.906;8.376;2023-03-12T14:13:31;22.60;;;11.33;;
19111;SDS011;9688;51.906;8.376;2023-03-12T14:16:27;19.07;;;11.40;;
19111;SDS011;9688;51.906;8.376;2023-03-12T14:19:23;18.87;;;11.93;;
19111;SDS011;9688;51.906;8.376;2023-03-12T14:22:12;21.57;;;12.50;;
19111;SDS011;9688;51.906;8.376;2023-03-12T14:25:00;22.43;;;12.70;;
19111;SDS011;9688;51.906;8.376;2023-03-12T14:27:50;23.23;;;13.80;;
19111;SDS011;9688;51.906;8.376;2023-03-12T14:30:39;24.30;;;14.07;;
19111;SDS011;9688;51.906;8.376;2023-03-12T14:33:30;24.23;;;13.47;;
19111;SDS011;9688;51.906;8.376;2023-03-12T14:36:18;26.43;;;14.03;;
19111;SDS011;9688;51.906;8.376;2023-03-12T14:39:11;24.77;;;13.33;;
19111;SDS011;9688;51.906;8.376;2023-03-12T14:42:08;27.47;;;14.47;;
19111;SDS011;9688;51.906;8.376;2023-03-12T14:44:57;23.00;;;14.07;;
19111;SDS011;9688;51.906;8.376;2023-03-12T14:47:45;28.63;;;14.73;;
19111;SDS011;9688;51.906;8.376;2023-03-12T14:50:35;25.23;;;14.80;;
19111;SDS011;9688;51.906;8.376;2023-03-12T14:53:24;27.67;;;14.10;;
19111;SDS011;9688;51.906;8.376;2023-03-12T14:56:19;24.10;;;13.93;;
19111;SDS011;9688;51.906;8.376;2023-03-12T14:59:24;22.83;;;13.57;;
19111;SDS011;9688;51.906;8.376;2023-03-12T15:02:17;24.53;;;13.77;;
19111;SDS011;9688;51.906;8.376;2023-03-12T15:05:04;22.90;;;12.63;;
19111;SDS011;9688;51.906;8.376;2023-03-12T15:07:50;23.87;;;13.27;;
19111;SDS011;9688;51.906;8.376;2023-03-12T15:10:46;26.17;;;14.13;;
19111;SDS011;9688;51.906;8.376;2023-03-12T15:13:35;23.33;;;13.30;;
19111;SDS011;9688;51.906;8.376;2023-03-12T15:16:23;22.67;;;13.30;;
19111;SDS011;9688;51.906;8.376;2023-03-12T15:19:09;26.23;;;13.50;;
19111;SDS011;9688;51.906;8.376;2023-03-12T15:21:57;24.93;;;12.80;;
19111;SDS011;9688;51.906;8.376;2023-03-12T15:24:44;22.50;;;13.50;;
19111;SDS011;9688;51.906;8.376;2023-03-12T15:27:31;28.33;;;14.70;;
19111;SDS011;9688;51.906;8.376;2023-03-12T15:30:23;22.03;;;12.83;;
19111;SDS011;9688;51.906;8.376;2023-03-12T15:33:20;21.47;;;12.57;;
19111;SDS011;9688;51.906;8.376;2023-03-12T15:39:20;26.63;;;12.30;;
19111;SDS011;9688;51.906;8.376;2023-03-12T15:42:14;21.17;;;12.30;;
19111;SDS011;9688;51.906;8.376;2023-03-12T15:45:03;17.97;;;11.17;;
19111;SDS011;9688;51.906;8.376;2023-03-12T15:47:55;17.23;;;10.90;;
19111;SDS011;9688;51.906;8.376;2023-03-12T15:50:42;19.67;;;11.37;;
19111;SDS011;9688;51.906;8.376;2023-03-12T15:53:31;16.60;;;10.77;;
19111;SDS011;9688;51.906;8.376;2023-03-12T15:56:21;17.00;;;9.77;;
19111;SDS011;9688;51.906;8.376;2023-03-12T15:59:18;21.13;;;10.40;;
19111;SDS011;9688;51.906;8.376;2023-03-12T16:02:08;23.33;;;11.10;;
19111;SDS011;9688;51.906;8.376;2023-03-12T16:04:57;26.03;;;11.73;;
19111;SDS011;9688;51.906;8.376;2023-03-12T16:07:43;21.57;;;11.40;;
19111;SDS011;9688;51.906;8.376;2023-03-12T16:10:30;23.27;;;11.37;;
19111;SDS011;9688;51.906;8.376;2023-03-12T16:13:22;20.00;;;11.40;;
19111;SDS011;9688;51.906;8.376;2023-03-12T16:16:14;29.50;;;16.17;;
19111;SDS011;9688;51.906;8.376;2023-03-12T16:19:00;23.03;;;12.37;;
19111;SDS011;9688;51.906;8.376;2023-03-12T16:21:49;21.60;;;11.90;;
19111;SDS011;9688;51.906;8.376;2023-03-12T16:24:35;20.97;;;11.70;;
19111;SDS011;9688;51.906;8.376;2023-03-12T16:27:21;29.30;;;12.83;;
19111;SDS011;9688;51.906;8.376;2023-03-12T16:30:11;25.27;;;12.90;;
19111;SDS011;9688;51.906;8.376;2023-03-12T16:33:07;27.57;;;13.80;;
19111;SDS011;9688;51.906;8.376;2023-03-12T16:35:57;29.50;;;13.00;;
19111;SDS011;9688;51.906;8.376;2023-03-12T16:38:43;33.50;;;15.67;;
19111;SDS011;9688;51.906;8.376;2023-03-12T16:41:32;47.60;;;16.67;;
19111;SDS011;9688;51.906;8.376;2023-03-12T16:44:20;28.17;;;13.20;;
19111;SDS011;9688;51.906;8.376;2023-03-12T16:47:08;32.27;;;16.50;;
19111;SDS011;9688;51.906;8.376;2023-03-12T16:49:56;32.00;;;15.83;;
19111;SDS011;9688;51.906;8.376;2023-03-12T16:52:41;35.70;;;18.07;;
19111;SDS011;9688;51.906;8.376;2023-03-12T16:55:38;36.63;;;19.03;;
19111;SDS011;9688;51.906;8.376;2023-03-12T16:58:29;36.37;;;19.03;;
19111;SDS011;9688;51.906;8.376;2023-03-12T17:01:16;44.27;;;21.57;;
19111;SDS011;9688;51.906;8.376;2023-03-12T17:04:03;49.77;;;22.63;;
19111;SDS011;9688;51.906;8.376;2023-03-12T17:06:49;45.90;;;21.90;;
19111;SDS011;9688;51.906;8.376;2023-03-12T17:09:35;44.80;;;21.37;;
19111;SDS011;9688;51.906;8.376;2023-03-12T17:12:34;43.93;;;21.77;;
19111;SDS011;9688;51.906;8.376;2023-03-12T17:15:22;43.20;;;21.27;;
19111;SDS011;9688;51.906;8.376;2023-03-12T17:18:10;48.33;;;22.10;;
19111;SDS011;9688;51.906;8.376;2023-03-12T17:20:55;48.73;;;24.10;;